Time;durP1;ratioP1;P1;durP2;ratioP2;P2;SDS_P1;SDS_P2;PMS_P1;PMS_P2;Temp;Humidity;BMP_temperature;BMP_pressure;BME280_temperature;BME280_humidity;BME280_pressure;Samples;Min_cycle;Max_cycle;Signal;HPM_P1;HPM_P2
2023/12/21 00:02:12;;;;;;;23.73;12.95;;;;;;;8.17;100.00;100481.53;4999249;28;20080;-86
2023/12/21 00:04:37;;;;;;;27.13;15.32;;;;;;;8.25;100.00;100490.84;5013602;28;20072;-86
2023/12/21 00:07:03;;;;;;;23.50;14.52;;;;;;;8.24;100.00;100483.66;4991375;28;20391;-86
2023/12/21 00:09:29;;;;;;;27.25;15.00;;;;;;;8.28;100.00;100478.84;5018314;28;20418;-86
2023/12/21 00:11:54;;;;;;;17.98;11.23;;;;;;;8.28;100.00;100474.25;5019515;28;20046;-86
2023/12/21 00:14:19;;;;;;;26.77;14.90;;;;;;;8.28;100.00;100467.94;4984339;28;20026;-86
2023/12/21 00:16:45;;;;;;;25.15;14.25;;;;;;;8.30;100.00;100463.22;5012620;28;20033;-85
2023/12/21 00:19:10;;;;;;;24.95;14.73;;;;;;;8.28;100.00;100452.44;4990362;28;20049;-86
2023/12/21 00:21:36;;;;;;;20.98;14.40;;;;;;;8.29;100.00;100447.84;4976740;28;20476;-86
2023/12/21 00:24:01;;;;;;;20.27;13.32;;;;;;;8.33;100.00;100437.56;5013354;28;20506;-85
2023/12/21 00:26:26;;;;;;;27.30;14.18;;;;;;;8.28;100.00;100433.34;4982245;28;20030;-85
2023/12/21 00:28:52;;;;;;;24.25;13.85;;;;;;;8.33;100.00;100429.38;5003420;28;20559;-86
2023/12/21 00:31:17;;;;;;;26.27;14.40;;;;;;;8.36;100.00;100432.78;5006413;28;20038;-86
2023/12/21 00:33:43;;;;;;;22.73;13.50;;;;;;;8.34;100.00;100423.81;5016495;28;20112;-86
2023/12/21 00:36:15;;;;;;;23.33;13.98;;;;;;;8.36;100.00;100423.69;5003941;28;20038;-86
2023/12/21 00:38:40;;;;;;;24.35;13.93;;;;;;;8.36;100.00;100421.84;5020502;28;20045;-85
2023/12/21 00:41:05;;;;;;;20.65;13.43;;;;;;;8.36;100.00;100420.97;5003850;28;20030;-86
2023/12/21 00:43:31;;;;;;;31.80;14.77;;;;;;;8.37;100.00;100423.56;4984629;28;20041;-86
2023/12/21 00:45:56;;;;;;;31.70;14.75;;;;;;;8.37;100.00;100409.09;4996312;28;20121;-86
2023/12/21 00:48:22;;;;;;;29.45;15.02;;;;;;;8.41;100.00;100399.66;5019352;28;20037;-85
2023/12/21 00:50:47;;;;;;;26.85;14.95;;;;;;;8.39;100.00;100402.50;5014201;28;20067;-86
2023/12/21 00:53:12;;;;;;;29.83;14.80;;;;;;;8.40;100.00;100395.22;5003835;28;20064;-86
2023/12/21 00:55:38;;;;;;;27.38;15.85;;;;;;;8.41;100.00;100391.47;4999060;28;20495;-86
2023/12/21 00:58:03;;;;;;;28.25;17.23;;;;;;;8.40;100.00;100384.28;4995801;28;20083;-86
2023/12/21 01:00:29;;;;;;;28.02;15.52;;;;;;;8.39;100.00;100375.22;5023214;28;20037;-86
2023/12/21 01:02:54;;;;;;;26.98;16.45;;;;;;;8.39;100.00;100367.03;4978933;28;20480;-85
2023/12/21 01:05:19;;;;;;;34.67;17.80;;;;;;;8.40;100.00;100362.47;4980253;28;20117;-86
2023/12/21 01:07:45;;;;;;;27.52;16.60;;;;;;;8.42;100.00;100355.88;5004344;28;20033;-86
2023/12/21 01:10:11;;;;;;;27.70;15.73;;;;;;;8.42;100.00;100352.31;5008779;28;20034;-86
2023/12/21 01:12:36;;;;;;;36.58;19.15;;;;;;;8.44;100.00;100358.53;5025390;28;20053;-86
2023/12/21 01:15:02;;;;;;;30.65;17.83;;;;;;;8.42;100.00;100346.84;4996179;28;20387;-85
2023/12/21 01:17:28;;;;;;;33.53;18.63;;;;;;;8.41;100.00;100346.00;4989937;28;20022;-86
2023/12/21 01:19:53;;;;;;;31.00;18.38;;;;;;;8.39;100.00;100339.75;5010813;28;20167;-86
2023/12/21 01:22:19;;;;;;;34.53;18.65;;;;;;;8.44;100.00;100325.78;4997107;28;20030;-86
2023/12/21 01:24:45;;;;;;;32.95;18.30;;;;;;;8.42;100.00;100325.03;4997170;28;20112;-86
2023/12/21 01:27:11;;;;;;;36.30;19.50;;;;;;;8.44;100.00;100333.97;4993456;28;20130;-86
2023/12/21 01:29:36;;;;;;;38.35;19.08;;;;;;;8.43;100.00;100338.56;4979862;28;20018;-86
2023/12/21 01:32:01;;;;;;;30.17;17.77;;;;;;;8.43;100.00;100346.75;5012268;28;20381;-87
2023/12/21 01:34:27;;;;;;;35.15;17.90;;;;;;;8.48;100.00;100342.78;4997825;28;20048;-86
2023/12/21 01:36:52;;;;;;;37.95;17.63;;;;;;;8.40;100.00;100327.88;5022814;28;20053;-86
2023/12/21 01:39:18;;;;;;;32.83;17.83;;;;;;;8.44;100.00;100334.88;4997653;28;20069;-86
2023/12/21 01:41:43;;;;;;;38.63;18.55;;;;;;;8.44;100.00;100320.34;5014560;28;20061;-86
2023/12/21 01:44:08;;;;;;;43.65;18.92;;;;;;;8.43;100.00;100305.84;4979072;28;20084;-87
2023/12/21 01:46:34;;;;;;;32.95;17.23;;;;;;;8.43;100.00;100313.16;4995561;28;20030;-87
2023/12/21 01:49:00;;;;;;;33.60;17.25;;;;;;;8.43;100.00;100305.84;4996506;28;20501;-87
2023/12/21 01:51:27;;;;;;;37.47;16.08;;;;;;;8.44;100.00;100314.88;4996345;28;20499;-86
2023/12/21 01:53:53;;;;;;;31.63;17.52;;;;;;;8.45;100.00;100322.09;4985169;28;20022;-86
2023/12/21 01:56:20;;;;;;;41.65;16.38;;;;;;;8.42;100.00;100306.78;5003164;28;20537;-85
2023/12/21 01:58:48;;;;;;;35.60;16.35;;;;;;;8.37;100.00;100297.25;4987315;28;20022;-85
2023/12/21 02:01:17;;;;;;;26.92;17.05;;;;;;;8.43;100.00;100284.00;5009144;28;20021;-86
2023/12/21 02:03:43;;;;;;;30.70;15.77;;;;;;;8.41;100.00;100285.06;4998765;28;20034;-85
2023/12/21 02:06:08;;;;;;;28.67;17.88;;;;;;;8.39;100.00;100285.19;4998962;28;20038;-85
2023/12/21 02:08:33;;;;;;;31.85;16.27;;;;;;;8.37;100.00;100284.47;5000358;28;20026;-86
2023/12/21 02:11:00;;;;;;;31.08;17.20;;;;;;;8.40;100.00;100286.09;4999596;28;20034;-86
2023/12/21 02:13:25;;;;;;;26.08;15.88;;;;;;;8.39;100.00;100293.38;5021133;28;20076;-86
2023/12/21 02:15:59;;;;;;;34.78;17.85;;;;;;;8.40;100.00;100305.19;5012495;28;20491;-86
2023/12/21 02:18:24;;;;;;;30.90;16.55;;;;;;;8.40;100.00;100310.63;5003530;28;20030;-87
2023/12/21 02:20:50;;;;;;;33.30;17.02;;;;;;;8.40;100.00;100310.63;5019385;28;20095;-87
2023/12/21 02:23:18;;;;;;;39.17;17.88;;;;;;;8.40;100.00;100303.31;5001997;28;20035;-87
2023/12/21 02:25:43;;;;;;;33.83;17.45;;;;;;;8.40;100.00;100295.13;5015646;28;20060;-85
2023/12/21 02:28:09;;;;;;;41.55;18.08;;;;;;;8.39;100.00;100285.19;5020687;28;20064;-86
2023/12/21 02:30:34;;;;;;;40.10;18.27;;;;;;;8.40;100.00;100280.63;5008982;28;20746;-87
2023/12/21 02:33:00;;;;;;;30.10;17.45;;;;;;;8.42;100.00;100275.91;5016057;28;20088;-87
2023/12/21 02:35:25;;;;;;;35.72;19.63;;;;;;;8.41;100.00;100268.72;5041663;28;20033;-87
2023/12/21 02:37:50;;;;;;;41.58;18.50;;;;;;;8.41;100.00;100265.97;4994885;28;20522;-87
2023/12/21 02:40:16;;;;;;;37.13;17.90;;;;;;;8.43;100.00;100258.59;4993702;28;20396;-86
2023/12/21 02:42:41;;;;;;;44.92;18.58;;;;;;;8.42;100.00;100249.50;4998661;28;20039;-87
2023/12/21 02:45:07;;;;;;;32.85;17.23;;;;;;;8.43;100.00;100245.81;5018835;28;20061;-86
2023/12/21 02:47:32;;;;;;;37.25;18.17;;;;;;;8.41;100.00;100242.31;4986349;28;20372;-87
2023/12/21 02:49:58;;;;;;;30.42;16.05;;;;;;;8.38;100.00;100218.03;4999000;28;20038;-86
2023/12/21 02:52:23;;;;;;;38.72;18.23;;;;;;;8.44;100.00;100228.47;5006136;28;20068;-83
2023/12/21 02:54:48;;;;;;;41.72;18.30;;;;;;;8.42;100.00;100232.28;4987351;28;20483;-83
2023/12/21 02:57:14;;;;;;;34.30;17.55;;;;;;;8.41;100.00;100228.69;4988452;28;20038;-83
2023/12/21 02:59:43;;;;;;;34.67;17.45;;;;;;;8.43;100.00;100228.59;5018169;28;20645;-83
2023/12/21 03:02:08;;;;;;;35.67;16.73;;;;;;;8.42;100.00;100218.63;4992443;28;20132;-84
2023/12/21 03:04:34;;;;;;;28.88;16.23;;;;;;;8.42;100.00;100218.63;5003841;28;20116;-83
2023/12/21 03:06:59;;;;;;;33.40;17.45;;;;;;;8.38;100.00;100220.75;5007631;28;20029;-83
2023/12/21 03:09:25;;;;;;;36.20;16.83;;;;;;;8.41;100.00;100225.06;4997525;28;20027;-83
2023/12/21 03:11:50;;;;;;;44.17;17.83;;;;;;;8.42;100.00;100222.22;4987939;28;20049;-84
2023/12/21 03:14:16;;;;;;;31.30;16.15;;;;;;;8.43;100.00;100213.09;5004835;28;20037;-84
2023/12/21 03:16:41;;;;;;;36.85;16.48;;;;;;;8.42;100.00;100199.53;4990762;28;20022;-84
2023/12/21 03:19:06;;;;;;;43.70;17.88;;;;;;;8.42;100.00;100188.63;5012442;28;20030;-84
2023/12/21 03:21:32;;;;;;;33.80;14.05;;;;;;;8.41;100.00;100170.50;4997408;28;20128;-83
2023/12/21 03:23:57;;;;;;;35.80;16.00;;;;;;;8.44;100.00;100160.28;4976986;28;20081;-84
2023/12/21 03:26:23;;;;;;;30.60;15.40;;;;;;;8.42;100.00;100131.34;5007294;28;20120;-84
2023/12/21 03:28:48;;;;;;;38.20;17.67;;;;;;;8.45;100.00;100128.41;5015215;28;20499;-83
2023/12/21 03:31:16;;;;;;;31.42;15.13;;;;;;;8.46;100.00;100120.09;5021704;28;20131;-85
2023/12/21 03:33:42;;;;;;;35.17;15.65;;;;;;;8.44;100.00;100108.44;5019648;28;20022;-83
2023/12/21 03:36:07;;;;;;;38.85;16.70;;;;;;;8.43;100.00;100103.97;5003637;28;20067;-83
2023/12/21 03:38:32;;;;;;;49.60;18.25;;;;;;;8.45;100.00;100101.97;5009623;28;20018;-84
2023/12/21 03:40:58;;;;;;;33.78;15.80;;;;;;;8.47;100.00;100112.75;5003886;28;20038;-83
2023/12/21 03:43:23;;;;;;;46.78;16.38;;;;;;;8.47;100.00;100099.13;4998827;28;20065;-85
2023/12/21 03:45:48;;;;;;;33.15;14.73;;;;;;;8.48;100.00;100105.44;5006686;28;20048;-84
2023/12/21 03:48:15;;;;;;;36.42;14.48;;;;;;;8.50;100.00;100100.75;4982782;28;20096;-84
2023/12/21 03:50:40;;;;;;;25.73;12.68;;;;;;;8.49;100.00;100101.72;4986485;28;20025;-84
2023/12/21 03:53:07;;;;;;;38.17;15.65;;;;;;;8.49;100.00;100085.34;4979653;28;20113;-85
2023/12/21 03:55:33;;;;;;;32.38;13.27;;;;;;;8.45;100.00;100082.03;5020609;28;20038;-84
2023/12/21 03:57:58;;;;;;;34.17;15.57;;;;;;;8.46;100.00;100078.28;5017148;28;20026;-84
2023/12/21 04:00:25;;;;;;;38.10;16.02;;;;;;;8.46;100.00;100068.25;5004526;28;20135;-83
2023/12/21 04:02:50;;;;;;;39.03;16.05;;;;;;;8.49;100.00;100069.84;5006959;28;20033;-88
2023/12/21 04:05:15;;;;;;;29.35;14.13;;;;;;;8.46;100.00;100051.88;4985031;28;20032;-88
2023/12/21 04:07:41;;;;;;;37.28;15.43;;;;;;;8.48;100.00;100048.16;5004849;28;20034;-87
2023/12/21 04:10:07;;;;;;;45.60;17.13;;;;;;;8.49;100.00;100052.63;4982444;28;20048;-87
2023/12/21 04:12:32;;;;;;;40.70;15.75;;;;;;;8.49;100.00;100064.38;4992191;28;20050;-87
2023/12/21 04:14:58;;;;;;;38.65;16.13;;;;;;;8.52;100.00;100049.63;5032673;28;20049;-87
2023/12/21 04:17:24;;;;;;;39.10;15.73;;;;;;;8.50;100.00;100044.31;5004064;28;20472;-88
2023/12/21 04:19:51;;;;;;;43.85;16.90;;;;;;;8.52;100.00;100055.94;4994990;28;20491;-86
2023/12/21 04:22:17;;;;;;;43.70;16.40;;;;;;;8.52;100.00;100055.09;5018623;28;20117;-87
2023/12/21 04:24:42;;;;;;;38.78;16.52;;;;;;;8.51;100.00;100051.50;5016324;28;20061;-86
2023/12/21 04:27:07;;;;;;;34.28;14.90;;;;;;;8.53;100.00;100033.13;4990421;28;20038;-87
2023/12/21 04:29:33;;;;;;;46.08;16.05;;;;;;;8.57;100.00;100017.38;5009993;28;20076;-88
2023/12/21 04:31:58;;;;;;;38.38;16.70;;;;;;;8.53;100.00;100011.31;4997672;28;20030;-87
2023/12/21 04:34:24;;;;;;;49.88;17.38;;;;;;;8.58;100.00;100006.34;5018710;28;20030;-87
2023/12/21 04:36:49;;;;;;;44.60;13.75;;;;;;;8.58;100.00;100005.47;5007446;28;20034;-86
2023/12/21 04:39:15;;;;;;;51.70;18.23;;;;;;;8.56;100.00;100008.34;4982150;28;20033;-87
2023/12/21 04:41:40;;;;;;;44.22;16.15;;;;;;;8.55;100.00;99990.22;5025783;28;20048;-86
2023/12/21 04:44:06;;;;;;;49.35;17.77;;;;;;;8.56;100.00;99970.13;4994286;28;20026;-88
2023/12/21 04:46:32;;;;;;;42.70;15.52;;;;;;;8.57;100.00;99966.38;5014817;28;20034;-87
2023/12/21 04:48:57;;;;;;;52.67;16.98;;;;;;;8.60;100.00;99970.72;5010164;28;20236;-87
2023/12/21 04:51:23;;;;;;;52.60;16.92;;;;;;;8.58;100.00;99964.56;5006571;28;20031;-86
2023/12/21 04:53:48;;;;;;;48.25;16.73;;;;;;;8.67;100.00;99966.47;4983775;28;20038;-87
2023/12/21 04:56:14;;;;;;;47.67;18.50;;;;;;;8.70;100.00;99965.34;5013875;28;20470;-86
2023/12/21 04:58:40;;;;;;;54.80;17.05;;;;;;;8.71;100.00;99961.63;5021141;28;20042;-87
2023/12/21 05:01:06;;;;;;;44.00;14.70;;;;;;;8.71;100.00;99950.72;5016239;28;20421;-87
2023/12/21 05:03:32;;;;;;;41.13;14.77;;;;;;;8.70;100.00;99938.91;5030843;28;20550;-87
2023/12/21 05:05:57;;;;;;;35.88;12.77;;;;;;;8.71;100.00;99924.28;5004300;28;20030;-87
2023/12/21 05:08:22;;;;;;;42.50;13.45;;;;;;;8.70;100.00;99918.97;4996579;28;20034;-87
2023/12/21 05:10:48;;;;;;;39.40;13.82;;;;;;;8.65;100.00;99898.38;5014501;28;20072;-88
2023/12/21 05:13:13;;;;;;;38.13;12.80;;;;;;;8.62;100.00;99889.59;4991438;28;20099;-83
2023/12/21 05:15:39;;;;;;;37.22;13.63;;;;;;;8.66;100.00;99893.81;4998311;28;20041;-83
2023/12/21 05:18:04;;;;;;;50.00;14.38;;;;;;;8.65;100.00;99912.03;4995656;28;20026;-83
2023/12/21 05:20:30;;;;;;;45.63;13.80;;;;;;;8.68;100.00;99919.09;5005567;28;20129;-84
2023/12/21 05:22:56;;;;;;;24.63;11.38;;;;;;;8.67;100.00;99905.59;4986186;28;20030;-83
2023/12/21 05:25:21;;;;;;;40.15;12.25;;;;;;;8.67;100.00;99897.38;4981944;28;20406;-83
2023/12/21 05:27:46;;;;;;;38.40;12.43;;;;;;;8.65;100.00;99901.09;4996899;28;20038;-83
2023/12/21 05:30:12;;;;;;;42.25;12.52;;;;;;;8.72;100.00;99909.63;5016646;28;20022;-83
2023/12/21 05:32:37;;;;;;;33.75;11.18;;;;;;;8.72;100.00;99898.72;5001751;28;20454;-83
2023/12/21 05:35:04;;;;;;;35.15;12.38;;;;;;;8.74;100.00;99884.94;5013562;28;20026;-83
2023/12/21 05:37:29;;;;;;;30.40;12.40;;;;;;;8.73;100.00;99878.63;5016529;28;20037;-83
2023/12/21 05:39:55;;;;;;;41.30;12.38;;;;;;;8.79;100.00;99878.09;4999702;28;20037;-84
2023/12/21 05:42:20;;;;;;;34.33;11.48;;;;;;;8.75;100.00;99881.22;5005434;28;20030;-84
2023/12/21 05:44:46;;;;;;;30.13;12.10;;;;;;;8.75;100.00;99876.63;4995337;28;20029;-84
2023/12/21 05:47:11;;;;;;;35.70;11.50;;;;;;;8.80;100.00;99857.09;5011108;28;20245;-85
2023/12/21 05:49:37;;;;;;;36.35;12.02;;;;;;;8.80;100.00;99868.88;5012367;28;20029;-84
2023/12/21 05:52:02;;;;;;;32.67;12.52;;;;;;;8.85;100.00;99871.22;4984492;28;20129;-84
2023/12/21 05:54:30;;;;;;;38.08;12.63;;;;;;;8.81;100.00;99856.97;4973947;28;20121;-84
2023/12/21 05:56:55;;;;;;;36.72;12.77;;;;;;;8.86;100.00;99874.84;4979723;28;20025;-83
2023/12/21 05:59:20;;;;;;;38.75;12.30;;;;;;;8.90;100.00;99874.41;5014263;28;20060;-84
2023/12/21 06:01:46;;;;;;;31.33;12.10;;;;;;;8.91;100.00;99870.69;5009096;28;20590;-84
2023/12/21 06:04:12;;;;;;;36.63;12.90;;;;;;;8.88;100.00;99870.94;4974165;28;20038;-84
2023/12/21 06:06:37;;;;;;;40.00;13.05;;;;;;;8.87;100.00;99861.03;5012666;28;20484;-84
2023/12/21 06:09:05;;;;;;;31.63;12.75;;;;;;;8.91;100.00;99870.69;5002889;28;20036;-84
2023/12/21 06:11:30;;;;;;;34.42;12.57;;;;;;;8.91;100.00;99861.63;5001238;28;20041;-85
2023/12/21 06:13:56;;;;;;;33.25;12.38;;;;;;;8.97;100.00;99864.69;4999917;28;20046;-83
2023/12/21 06:16:21;;;;;;;34.58;11.35;;;;;;;8.95;100.00;99844.84;4992809;28;20563;-84
2023/12/21 06:18:48;;;;;;;35.53;12.90;;;;;;;8.92;100.00;99836.94;5002696;28;20045;-83
2023/12/21 06:21:13;;;;;;;42.53;13.25;;;;;;;8.94;100.00;99840.38;5018309;28;20514;-88
2023/12/21 06:23:39;;;;;;;29.23;12.20;;;;;;;9.00;100.00;99836.22;4994969;28;20022;-88
2023/12/21 06:26:04;;;;;;;27.42;12.15;;;;;;;8.97;100.00;99817.41;4987083;28;20029;-88
2023/12/21 06:28:30;;;;;;;27.33;12.20;;;;;;;8.91;100.00;99827.00;5021555;28;20030;-88
2023/12/21 06:30:55;;;;;;;34.45;13.32;;;;;;;8.92;100.00;99811.47;5008196;28;20439;-87
2023/12/21 06:33:21;;;;;;;27.25;11.10;;;;;;;8.90;100.00;99794.38;4995981;28;20030;-87
2023/12/21 06:35:47;;;;;;;46.85;13.45;;;;;;;8.92;100.00;99801.44;5004296;28;20063;-89
2023/12/21 06:38:12;;;;;;;29.27;13.07;;;;;;;8.88;100.00;99810.03;5014091;28;20018;-88
2023/12/21 06:40:38;;;;;;;32.72;13.20;;;;;;;8.93;100.00;99807.75;4983842;28;20026;-89
2023/12/21 06:43:03;;;;;;;29.98;14.23;;;;;;;8.89;100.00;99796.25;4996825;28;20038;-87
2023/12/21 06:45:28;;;;;;;33.67;14.52;;;;;;;8.89;100.00;99798.13;5008174;28;20029;-88
2023/12/21 06:47:54;;;;;;;29.85;14.75;;;;;;;8.89;100.00;99811.78;5027667;28;20078;-87
2023/12/21 06:50:20;;;;;;;36.38;14.43;;;;;;;8.87;100.00;99805.56;4983776;28;20045;-86
2023/12/21 06:52:46;;;;;;;31.73;14.38;;;;;;;8.87;100.00;99809.19;4997718;28;20117;-91
2023/12/21 06:55:12;;;;;;;32.22;13.65;;;;;;;8.91;100.00;99810.63;5001243;28;20061;-88
2023/12/21 06:57:37;;;;;;;36.80;15.27;;;;;;;8.93;100.00;99805.03;5011669;28;20029;-86
2023/12/21 07:00:04;;;;;;;40.97;15.48;;;;;;;8.94;100.00;99801.31;5003735;28;20163;-84
2023/12/21 07:02:30;;;;;;;33.95;16.33;;;;;;;8.91;100.00;99791.50;4988656;28;20025;-87
2023/12/21 07:04:55;;;;;;;33.67;14.80;;;;;;;8.97;100.00;99777.31;5013166;28;20037;-87
2023/12/21 07:07:20;;;;;;;34.85;16.60;;;;;;;9.00;100.00;99781.63;4992197;28;20394;-85
2023/12/21 07:09:47;;;;;;;35.08;16.40;;;;;;;9.00;100.00;99768.88;5011443;28;20116;-86
2023/12/21 07:12:13;;;;;;;36.65;17.13;;;;;;;8.98;100.00;99757.19;5012553;28;20049;-93
2023/12/21 07:14:39;;;;;;;41.95;16.98;;;;;;;8.98;100.00;99745.41;5015245;28;20045;-85
2023/12/21 07:17:05;;;;;;;42.25;16.50;;;;;;;8.97;100.00;99730.91;4992799;28;20379;-88
2023/12/21 07:19:30;;;;;;;36.25;15.30;;;;;;;9.02;100.00;99736.81;4977443;28;20034;-85
2023/12/21 07:21:56;;;;;;;43.83;16.83;;;;;;;8.97;100.00;99719.13;4991287;28;20034;-86
2023/12/21 07:24:21;;;;;;;36.13;15.32;;;;;;;8.94;100.00;99717.53;5023937;28;20041;-86
2023/12/21 07:26:46;;;;;;;41.05;15.52;;;;;;;8.96;100.00;99734.63;4997971;28;20120;-89
2023/12/21 07:29:12;;;;;;;38.60;15.20;;;;;;;8.97;100.00;99735.53;4986372;28;20037;-89
2023/12/21 07:31:37;;;;;;;43.08;15.23;;;;;;;9.00;100.00;99724.28;5009300;28;20034;-87
2023/12/21 07:34:03;;;;;;;36.67;15.60;;;;;;;8.95;100.00;99713.81;4979006;28;20041;-87
2023/12/21 07:36:28;;;;;;;33.60;12.10;;;;;;;8.97;100.00;99714.53;4985141;28;20038;-89
2023/12/21 07:38:54;;;;;;;29.75;13.95;;;;;;;9.08;100.00;99718.13;5002423;28;20506;-88
2023/12/21 07:41:20;;;;;;;33.33;13.68;;;;;;;9.06;100.00;99718.28;5017353;28;20037;-87
2023/12/21 07:43:45;;;;;;;29.83;11.82;;;;;;;9.07;100.00;99705.47;4994266;28;20114;-86
2023/12/21 07:46:11;;;;;;;34.75;14.07;;;;;;;9.05;100.00;99692.00;5017338;28;20032;-89
2023/12/21 07:48:36;;;;;;;29.63;12.95;;;;;;;9.06;100.00;99699.16;4977467;28;20058;-88
2023/12/21 07:51:02;;;;;;;33.75;13.23;;;;;;;9.02;100.00;99697.75;4994772;28;20133;-88
2023/12/21 07:53:27;;;;;;;24.83;10.65;;;;;;;9.04;100.00;99684.81;5019218;28;20487;-88
2023/12/21 07:55:53;;;;;;;34.63;12.65;;;;;;;9.05;100.00;99682.94;5009469;28;20050;-86
2023/12/21 07:58:18;;;;;;;25.40;9.52;;;;;;;9.03;100.00;99669.41;4991986;28;20459;-90
2023/12/21 08:00:43;;;;;;;27.48;11.02;;;;;;;9.06;100.00;99674.59;5004219;28;20030;-84
2023/12/21 08:03:09;;;;;;;24.45;9.90;;;;;;;9.09;100.00;99679.78;4987814;28;20034;-84
2023/12/21 08:05:34;;;;;;;28.48;9.95;;;;;;;9.05;100.00;99674.72;5021826;28;20483;-84
2023/12/21 08:08:00;;;;;;;29.83;10.45;;;;;;;9.06;100.00;99671.88;5010585;28;20109;-88
2023/12/21 08:10:25;;;;;;;24.40;10.63;;;;;;;9.06;100.00;99674.59;5027874;28;20101;-85
2023/12/21 08:12:50;;;;;;;27.60;11.15;;;;;;;9.06;100.00;99663.66;5015124;28;20050;-86
2023/12/21 08:15:16;;;;;;;29.58;10.77;;;;;;;9.08;100.00;99660.81;5015594;28;20468;-84
2023/12/21 08:17:43;;;;;;;23.10;10.68;;;;;;;9.09;100.00;99652.47;5031827;28;20112;-84
2023/12/21 08:20:12;;;;;;;25.90;10.38;;;;;;;9.12;100.00;99638.53;4983817;28;20129;-87
2023/12/21 08:22:38;;;;;;;21.52;10.82;;;;;;;9.07;100.00;99646.28;5002440;28;20030;-84
2023/12/21 08:25:03;;;;;;;26.63;11.85;;;;;;;9.09;100.00;99647.00;5020150;28;20028;-83
2023/12/21 08:27:29;;;;;;;24.77;11.93;;;;;;;9.09;100.00;99648.88;5023244;28;20036;-84
2023/12/21 08:29:54;;;;;;;25.55;9.70;;;;;;;9.09;100.00;99627.03;5019575;28;20034;-85
2023/12/21 08:32:20;;;;;;;21.70;9.15;;;;;;;9.15;100.00;99632.78;4984149;28;20116;-85
2023/12/21 08:34:45;;;;;;;26.98;11.30;;;;;;;9.16;100.00;99625.47;4998886;28;20045;-83
2023/12/21 08:37:12;;;;;;;24.73;10.18;;;;;;;9.16;100.00;99623.56;5019866;28;20030;-82
2023/12/21 08:39:39;;;;;;;30.17;9.85;;;;;;;9.12;100.00;99641.25;4999394;28;20034;-81
2023/12/21 08:42:08;;;;;;;17.45;9.30;;;;;;;9.11;100.00;99622.28;5017048;28;20479;-86
2023/12/21 08:44:34;;;;;;;16.38;8.30;;;;;;;9.14;100.00;99620.13;4979917;28;20037;-89
2023/12/21 08:46:59;;;;;;;15.57;7.50;;;;;;;9.18;100.00;99618.84;4997371;28;20415;-86
2023/12/21 08:49:25;;;;;;;18.83;7.55;;;;;;;9.18;100.00;99607.94;5018877;28;20050;-85
2023/12/21 08:51:53;;;;;;;15.80;7.43;;;;;;;9.15;100.00;99618.25;4992252;28;20034;-85
2023/12/21 08:54:19;;;;;;;15.18;7.45;;;;;;;9.21;100.00;99614.97;4982505;28;20052;-84
2023/12/21 08:56:44;;;;;;;16.63;7.65;;;;;;;9.18;100.00;99612.50;5038338;28;20491;-84
2023/12/21 08:59:10;;;;;;;10.70;5.22;;;;;;;9.22;100.00;99592.13;4997055;28;20084;-84
2023/12/21 09:01:36;;;;;;;15.57;5.45;;;;;;;9.26;100.00;99590.81;5012228;28;20092;-84
2023/12/21 09:04:02;;;;;;;9.95;6.03;;;;;;;9.28;100.00;99585.19;5017403;28;20083;-85
2023/12/21 09:06:28;;;;;;;13.10;5.95;;;;;;;9.22;100.00;99591.25;4979597;28;20117;-85
2023/12/21 09:08:53;;;;;;;12.75;5.50;;;;;;;9.26;100.00;99585.34;5017309;28;20117;-84
2023/12/21 09:11:19;;;;;;;8.80;4.57;;;;;;;9.32;100.00;99592.13;5002083;28;20029;-84
2023/12/21 09:13:44;;;;;;;11.98;4.88;;;;;;;9.33;100.00;99575.59;5007045;28;20046;-85
2023/12/21 09:16:09;;;;;;;10.27;4.20;;;;;;;9.37;100.00;99579.72;4980139;28;20038;-84
2023/12/21 09:18:35;;;;;;;7.97;3.88;;;;;;;9.37;100.00;99571.53;4978449;28;20033;-84
2023/12/21 09:21:02;;;;;;;16.08;5.35;;;;;;;9.36;100.00;99569.84;5019593;28;20037;-85
2023/12/21 09:23:28;;;;;;;15.75;5.57;;;;;;;9.36;100.00;99579.88;5022772;28;20108;-84
2023/12/21 09:25:53;;;;;;;8.93;5.80;;;;;;;9.38;100.00;99569.69;5022104;28;20420;-84
2023/12/21 09:28:18;;;;;;;8.35;4.60;;;;;;;9.45;100.00;99561.78;5004331;28;20044;-85
2023/12/21 09:30:44;;;;;;;12.52;6.13;;;;;;;9.50;100.00;99565.78;5002653;28;20026;-84
2023/12/21 09:33:11;;;;;;;9.15;5.68;;;;;;;9.48;100.00;99558.75;5001898;28;20037;-85
2023/12/21 09:35:36;;;;;;;17.05;5.97;;;;;;;9.51;100.00;99556.56;5000289;28;20121;-84
2023/12/21 09:38:02;;;;;;;12.23;5.75;;;;;;;9.54;100.00;99561.75;5001248;28;20133;-85
2023/12/21 09:40:27;;;;;;;9.60;6.07;;;;;;;9.57;100.00;99564.19;5005685;28;20034;-85
2023/12/21 09:42:57;;;;;;;16.38;6.65;;;;;;;9.55;100.00;99549.78;5006603;28;20479;-84
2023/12/21 09:45:24;;;;;;;17.70;6.20;;;;;;;9.61;100.00;99539.28;5015594;28;20034;-84
2023/12/21 09:47:51;;;;;;;15.30;6.07;;;;;;;9.63;100.00;99548.22;5007245;28;20056;-84
2023/12/21 09:50:19;;;;;;;15.35;6.18;;;;;;;9.67;100.00;99546.88;5030528;28;20467;-84
2023/12/21 09:52:47;;;;;;;18.38;7.30;;;;;;;9.70;100.00;99524.72;4987586;28;20026;-85
2023/12/21 09:55:15;;;;;;;13.23;6.28;;;;;;;9.69;100.00;99523.88;5021609;28;20032;-84
2023/12/21 09:57:41;;;;;;;15.80;6.68;;;;;;;9.74;100.00;99512.50;5019876;28;20044;-85
2023/12/21 10:00:07;;;;;;;13.68;5.50;;;;;;;9.79;100.00;99525.69;4980056;28;20026;-85
2023/12/21 10:02:33;;;;;;;13.60;5.07;;;;;;;9.82;100.00;99504.41;5016526;28;20043;-85
2023/12/21 10:04:59;;;;;;;14.98;5.45;;;;;;;9.81;100.00;99508.16;4983853;28;20029;-84
2023/12/21 10:07:25;;;;;;;11.13;4.53;;;;;;;9.88;100.00;99498.31;5002230;28;20040;-85
2023/12/21 10:09:51;;;;;;;7.30;4.45;;;;;;;9.90;100.00;99503.63;5015510;28;20024;-85
2023/12/21 10:12:16;;;;;;;8.40;3.30;;;;;;;9.92;100.00;99499.75;5021706;28;20058;-85
2023/12/21 10:14:43;;;;;;;9.93;3.65;;;;;;;9.95;100.00;99509.50;5008066;28;20125;-85
2023/12/21 10:17:10;;;;;;;8.95;3.03;;;;;;;10.03;100.00;99512.34;5014276;28;20121;-86
2023/12/21 10:19:44;;;;;;;17.23;2.33;;;;;;;10.05;100.00;99491.22;5016253;28;20029;-85
2023/12/21 10:22:09;;;;;;;9.98;2.50;;;;;;;10.01;100.00;99506.19;5015026;28;20448;-85
2023/12/21 10:24:36;;;;;;;11.18;2.30;;;;;;;10.07;100.00;99491.06;5001391;28;20060;-85
2023/12/21 10:27:03;;;;;;;7.43;1.80;;;;;;;10.08;100.00;99488.19;5024410;28;20042;-84
2023/12/21 10:29:29;;;;;;;23.77;2.22;;;;;;;10.12;100.00;99492.31;5002362;28;20053;-85
2023/12/21 10:31:56;;;;;;;6.60;1.30;;;;;;;10.19;100.00;99491.72;5007358;28;20077;-85
2023/12/21 10:34:22;;;;;;;7.22;1.50;;;;;;;10.18;100.00;99495.44;5019151;28;20034;-85
2023/12/21 10:36:48;;;;;;;13.25;1.80;;;;;;;10.17;100.00;99469.13;5016499;28;20124;-84
2023/12/21 10:39:15;;;;;;;8.07;1.70;;;;;;;10.20;100.00;99477.00;5020119;28;20125;-85
2023/12/21 10:41:44;;;;;;;12.98;1.38;;;;;;;10.27;100.00;99486.34;5016970;28;20033;-85
2023/12/21 10:44:15;;;;;;;5.80;1.23;;;;;;;10.33;100.00;99479.41;5020175;28;20076;-85
2023/12/21 10:46:41;;;;;;;9.10;1.55;;;;;;;10.42;100.00;99492.16;5011315;28;20045;-84
2023/12/21 10:49:10;;;;;;;8.23;1.58;;;;;;;10.44;100.00;99480.03;4991068;28;20037;-84
2023/12/21 10:51:37;;;;;;;8.65;1.33;;;;;;;10.55;100.00;99458.94;4997851;28;20038;-85
2023/12/21 10:54:06;;;;;;;10.13;1.00;;;;;;;10.54;100.00;99449.84;5034621;28;20417;-88
2023/12/21 10:56:32;;;;;;;8.38;1.30;;;;;;;10.58;100.00;99464.97;5018370;28;20021;-84
2023/12/21 10:59:01;;;;;;;9.10;1.67;;;;;;;10.64;100.00;99466.19;4993664;28;20038;-85
2023/12/21 11:01:28;;;;;;;10.77;1.08;;;;;;;10.67;100.00;99498.75;5018668;28;20026;-84
2023/12/21 11:03:54;;;;;;;9.80;0.93;;;;;;;10.68;100.00;99480.47;5016961;28;20177;-84
2023/12/21 11:06:21;;;;;;;6.78;1.73;;;;;;;10.77;100.00;99463.97;4999584;28;20040;-84
2023/12/21 11:08:48;;;;;;;11.30;1.30;;;;;;;10.75;100.00;99462.38;5015842;28;20398;-85
2023/12/21 11:11:15;;;;;;;6.32;1.17;;;;;;;10.73;100.00;99469.91;5003884;28;21894;-84